Terminal Aerodrome Forecast
Issued by NWS

Home | Current Version | Previous Version | Text Only | Print | Product List | Glossary On
Versions: 1 2 3 4 5 6 7 8 9 10 11 12 13 14 15 16 17 18 19 20 21 22 23 24 25 26 27 28 29
000
FTAK31 PANC 291122
TAFADQ
TAF
PADQ 291122Z 2912/3012 VRB05KT P6SM -SHRA SCT006 BKN015 OVC025
      TEMPO 2912/2916 3SM RA BR BKN006
     FM292100 01011KT P6SM SCT015 OVC035
     FM300600 VRB05KT P6SM SCT120=

USA.gov is the U.S. government's official web portal to all federal, state and local government web resources and services.